Main page
METAR-TAF:

METAR-TAF

Airports :

Hawarden Airport

Hawarden, Wales

latitude: 53-10N, longitude: 002-59W, elevation: 10 m

Current weather observation

The report was made 26 minutes ago, at 14:20 UTC
Wind 11 kt from the South/Southeast
Temperature 6°C
Humidity 70%
Pressure 1030 hPa
Visibility: 9000 m
Broken clouds at a height of 1500 ft

METAR: EGNR 021420Z 15011KT 9000 BKN015 06/01 Q1030

Time: 14:46 (14:46 UTC)

Forecast

The report was made 42 minutes ago, at 14:04 UTC
Forecast valid from 02 at 15 UTC to 02 at 21 UTC
Wind 9 kt from the South/Southeast
Visibility 10 km or more
Scattered clouds at a height of 1500 ft
Temporary
from 02 at 15 UTC to 02 at 21 UTC
Visibility: 6000 m
Probability 30% :
Temporary
from 02 at 15 UTC to 02 at 17 UTC
Broken clouds at a height of 1200 ft

TAF: EGNR 021404Z 0215/0221 16009KT 9999 SCT015 TEMPO 0215/0221 6000 PROB30 TEMPO 0215/0217 BKN012

Weather observations and forecasts of more than 4000 airports (METAR and TAF reports).

The available stations are represented by yellow and red dots on the map.

Hover mouse over dot to see the name of the station.

Then click to see weather observations and forecasts.

To change the map : click on the green buttons with a black cross to zoom in, on the green button with a dash to zoom out, or on the green arrows for adjacent maps.


METAR-TAF: